Time;durP1;ratioP1;P1;durP2;ratioP2;P2;SDS_P1;SDS_P2;PMS_P1;PMS_P2;Temp;Humidity;BMP_temperature;BMP_pressure;BME280_temperature;BME280_humidity;BME280_pressure;Samples;Min_cycle;Max_cycle;Signal;HPM_P1;HPM_P2
2023/10/14 00:01:03;;;;;;;8.52;4.45;;;;;;;19.58;52.42;97363.81;5013740;28;20369;-72
2023/10/14 00:03:32;;;;;;;9.25;4.28;;;;;;;19.50;52.60;97351.75;4995964;28;20386;-72
2023/10/14 00:06:00;;;;;;;9.05;4.13;;;;;;;19.53;52.56;97359.31;5028607;28;20508;-72
2023/10/14 00:08:28;;;;;;;8.30;4.22;;;;;;;19.56;52.48;97358.66;5005115;28;20547;-72
2023/10/14 00:10:54;;;;;;;8.57;4.07;;;;;;;19.48;52.50;97355.94;5021746;28;20500;-71
2023/10/14 00:13:19;;;;;;;6.57;3.85;;;;;;;19.51;52.66;97367.00;4993821;28;20042;-71
2023/10/14 00:15:45;;;;;;;7.93;4.18;;;;;;;19.47;52.85;97359.78;5005579;28;20021;-71
2023/10/14 00:18:13;;;;;;;9.52;4.10;;;;;;;19.49;52.68;97360.25;4993657;28;20038;-71
2023/10/14 00:20:39;;;;;;;14.38;4.38;;;;;;;19.45;52.75;97371.03;5006617;28;20464;-72
2023/10/14 00:23:04;;;;;;;10.48;4.22;;;;;;;19.46;52.83;97361.72;5012079;28;20109;-70
2023/10/14 00:25:32;;;;;;;7.90;4.00;;;;;;;19.44;52.80;97365.91;4999375;28;20500;-71
2023/10/14 00:27:58;;;;;;;10.10;4.13;;;;;;;19.45;52.81;97351.09;4993516;28;20084;-71
2023/10/14 00:30:26;;;;;;;7.53;4.18;;;;;;;19.48;52.88;97350.47;5006287;28;20030;-70
2023/10/14 00:32:52;;;;;;;11.45;4.43;;;;;;;19.41;53.04;97355.59;4983997;28;20426;-72
2023/10/14 00:35:19;;;;;;;11.15;4.20;;;;;;;19.43;52.67;97350.63;5011731;28;20039;-71
2023/10/14 00:37:44;;;;;;;8.93;4.40;;;;;;;19.41;52.60;97341.94;5024740;28;20042;-71
2023/10/14 00:40:22;;;;;;;8.55;3.85;;;;;;;19.30;52.58;97317.66;5006673;28;20018;-71
2023/10/14 00:42:50;;;;;;;7.72;3.78;;;;;;;19.37;52.96;97336.31;5003332;28;20394;-71
2023/10/14 00:45:20;;;;;;;7.55;4.03;;;;;;;19.31;53.17;97340.31;4995203;28;20465;-71
2023/10/14 00:47:47;;;;;;;7.22;4.10;;;;;;;19.38;53.43;97328.94;5001179;28;20042;-72
2023/10/14 00:52:57;;;;;;;10.10;4.20;;;;;;;19.32;53.45;97309.94;5011471;28;20077;-72
2023/10/14 00:55:34;;;;;;;9.48;3.97;;;;;;;19.29;53.58;97313.34;4995058;28;20058;-72
2023/10/14 00:58:00;;;;;;;8.52;4.15;;;;;;;19.33;53.63;97317.03;5011248;28;20044;-72
2023/10/14 01:00:45;;;;;;;6.63;3.85;;;;;;;19.37;54.36;97300.03;5024155;28;20030;-72
2023/10/14 01:03:15;;;;;;;12.30;4.43;;;;;;;19.37;53.93;97300.03;4991874;28;20062;-71
2023/10/14 01:05:40;;;;;;;8.95;4.55;;;;;;;19.30;54.57;97290.34;5002375;28;20026;-71
2023/10/14 01:08:11;;;;;;;8.50;3.97;;;;;;;19.28;54.48;97292.59;4995630;28;20038;-71
2023/10/14 01:10:38;;;;;;;7.50;4.05;;;;;;;19.28;54.13;97291.81;5010707;28;20524;-71
2023/10/14 01:13:09;;;;;;;6.50;3.88;;;;;;;19.19;54.23;97293.72;4997919;28;20025;-73
2023/10/14 01:15:42;;;;;;;7.97;4.00;;;;;;;19.14;54.78;97296.63;5011337;28;20030;-73
2023/10/14 01:18:08;;;;;;;7.93;4.05;;;;;;;19.13;54.89;97295.84;5027648;28;20552;-73
2023/10/14 01:20:37;;;;;;;7.63;3.78;;;;;;;19.05;54.53;97288.44;5011046;28;20022;-73
2023/10/14 01:23:14;;;;;;;6.95;3.90;;;;;;;19.06;54.36;97283.78;5012597;28;20116;-73
2023/10/14 01:25:51;;;;;;;7.93;3.80;;;;;;;19.03;54.18;97282.50;5012320;28;20041;-73
2023/10/14 01:28:29;;;;;;;7.70;4.10;;;;;;;18.98;54.15;97271.75;5001632;28;20494;-72
2023/10/14 01:31:33;;;;;;;8.23;4.15;;;;;;;19.03;53.43;97274.31;5010674;28;20057;-71
2023/10/14 01:34:01;;;;;;;9.90;4.30;;;;;;;19.04;53.96;97266.94;5007934;28;20037;-71
2023/10/14 01:36:32;;;;;;;6.85;4.00;;;;;;;18.95;53.95;97255.22;4988296;28;20030;-71
2023/10/14 01:39:00;;;;;;;6.53;3.75;;;;;;;19.05;53.54;97255.69;4998865;28;20045;-71
2023/10/14 01:41:29;;;;;;;13.05;4.13;;;;;;;19.04;53.58;97267.72;5011003;28;20064;-71
2023/10/14 01:43:57;;;;;;;8.38;3.50;;;;;;;19.01;53.45;97245.75;5008438;28;20033;-73
2023/10/14 01:46:23;;;;;;;10.23;3.80;;;;;;;18.93;53.37;97236.44;4991336;28;20145;-72
2023/10/14 01:48:52;;;;;;;8.02;3.53;;;;;;;19.09;53.39;97243.00;4992056;28;20109;-73
2023/10/14 01:51:19;;;;;;;9.20;4.18;;;;;;;19.08;52.91;97233.22;4992346;28;20069;-73
2023/10/14 01:53:44;;;;;;;6.63;3.65;;;;;;;19.14;52.83;97242.03;4997898;28;20130;-72
2023/10/14 01:56:10;;;;;;;6.82;3.83;;;;;;;19.14;53.17;97231.91;5010603;28;20129;-73
2023/10/14 01:58:36;;;;;;;7.05;3.75;;;;;;;19.17;52.78;97234.00;4993957;28;20038;-73
2023/10/14 02:01:12;;;;;;;9.13;3.95;;;;;;;19.23;52.77;97229.16;4994596;28;20041;-73
2023/10/14 02:03:50;;;;;;;8.20;3.72;;;;;;;19.28;52.51;97226.28;5011217;28;20052;-72
2023/10/14 02:06:21;;;;;;;7.03;3.58;;;;;;;19.26;52.05;97223.06;5013942;28;20577;-73
2023/10/14 02:08:52;;;;;;;6.18;3.83;;;;;;;19.29;52.47;97234.16;5014446;28;20429;-72
2023/10/14 02:11:21;;;;;;;8.57;4.15;;;;;;;19.29;52.37;97217.78;5014383;28;20030;-72
2023/10/14 02:13:49;;;;;;;12.57;4.07;;;;;;;19.28;52.62;97210.69;5014815;28;20112;-71
2023/10/14 02:16:15;;;;;;;10.52;4.07;;;;;;;19.26;52.70;97215.69;5009541;28;20486;-71
2023/10/14 02:18:42;;;;;;;8.13;3.85;;;;;;;19.25;52.41;97216.81;5005735;28;20053;-72
2023/10/14 02:21:11;;;;;;;6.20;3.85;;;;;;;19.24;52.69;97215.22;5030798;28;20034;-72
2023/10/14 02:23:44;;;;;;;7.50;3.75;;;;;;;19.17;52.52;97219.56;5014512;28;20037;-71
2023/10/14 02:26:28;;;;;;;10.75;3.90;;;;;;;19.11;52.87;97204.47;5024190;28;20050;-71
2023/10/14 02:28:54;;;;;;;9.90;3.85;;;;;;;19.03;52.71;97208.81;5009930;28;20048;-71
2023/10/14 02:33:53;;;;;;;4.95;3.85;;;;;;;19.08;52.80;97203.19;5001241;28;20034;-72
2023/10/14 02:36:19;;;;;;;12.07;3.90;;;;;;;19.03;52.59;97208.81;5004197;28;20030;-72
2023/10/14 02:38:46;;;;;;;6.15;3.85;;;;;;;19.04;52.63;97215.88;5013488;28;20078;-72
2023/10/14 02:41:16;;;;;;;9.27;3.97;;;;;;;19.03;52.77;97208.81;5011050;28;20683;-70
2023/10/14 02:43:42;;;;;;;7.75;4.10;;;;;;;19.05;52.43;97217.47;5011424;28;20121;-70
2023/10/14 02:46:11;;;;;;;11.32;4.18;;;;;;;19.07;52.59;97215.22;5011025;28;20050;-70
2023/10/14 02:48:54;;;;;;;7.72;3.75;;;;;;;19.13;52.30;97213.97;4997317;28;20046;-70
2023/10/14 02:51:29;;;;;;;8.95;3.90;;;;;;;19.17;52.60;97203.19;5015952;28;20444;-70
2023/10/14 02:54:04;;;;;;;10.68;4.35;;;;;;;19.16;52.53;97196.91;5015142;28;20524;-72
2023/10/14 02:59:18;;;;;;;6.43;4.20;;;;;;;19.20;52.77;97192.44;5036373;22;20524;-70
2023/10/14 03:07:27;;;;;;;8.52;4.20;;;;;;;19.09;52.77;97191.13;5029007;28;20041;-69
2023/10/14 03:09:53;;;;;;;7.05;3.97;;;;;;;19.21;52.82;97204.13;5032981;28;20056;-69
2023/10/14 03:12:19;;;;;;;6.65;3.78;;;;;;;19.05;53.11;97179.28;5033022;28;20369;-69
2023/10/14 03:14:52;;;;;;;9.02;4.15;;;;;;;19.21;52.87;97193.22;5000274;28;20048;-69
2023/10/14 03:17:25;;;;;;;3.90;3.53;;;;;;;19.12;53.20;97182.31;5033997;28;20481;-69
2023/10/14 03:19:53;;;;;;;7.18;3.63;;;;;;;19.09;52.99;97177.50;5033137;28;20042;-68
2023/10/14 03:22:25;;;;;;;8.48;4.20;;;;;;;19.19;52.83;97179.88;5033066;28;20046;-69
2023/10/14 03:24:51;;;;;;;7.80;3.80;;;;;;;19.15;52.66;97195.31;5033059;28;20034;-69
2023/10/14 03:27:18;;;;;;;13.23;4.40;;;;;;;19.14;52.67;97182.78;5032984;28;20021;-69
2023/10/14 03:29:51;;;;;;;9.95;4.28;;;;;;;19.20;52.94;97184.25;5032688;28;20112;-69
2023/10/14 03:32:17;;;;;;;6.53;4.28;;;;;;;19.26;52.95;97176.66;5033107;28;20037;-69
2023/10/14 03:34:43;;;;;;;10.77;4.50;;;;;;;19.27;52.77;97175.53;5034082;28;20666;-69
2023/10/14 03:37:25;;;;;;;8.55;3.88;;;;;;;19.26;52.97;97177.47;5030219;28;20090;-69
2023/10/14 03:42:35;;;;;;;8.43;4.30;;;;;;;19.29;53.66;97170.56;5033876;28;20111;-70
2023/10/14 03:45:06;;;;;;;15.35;4.75;;;;;;;19.26;53.84;97185.66;5003300;28;20105;-70
2023/10/14 03:47:34;;;;;;;10.52;4.72;;;;;;;19.35;53.72;97182.91;5033871;28;20119;-68
2023/10/14 03:50:00;;;;;;;8.90;4.35;;;;;;;19.43;54.54;97173.13;5033582;28;20025;-71
2023/10/14 03:52:26;;;;;;;8.57;5.30;;;;;;;19.54;55.49;97174.34;5033740;28;20121;-71
2023/10/14 03:54:51;;;;;;;10.43;5.53;;;;;;;19.59;55.35;97158.59;5033719;28;20029;-70
2023/10/14 03:57:33;;;;;;;10.98;5.32;;;;;;;19.72;55.43;97181.38;5033694;28;20037;-70
2023/10/14 04:00:09;;;;;;;8.48;5.13;;;;;;;19.71;55.36;97174.28;5033421;28;20045;-69
2023/10/14 04:02:40;;;;;;;9.82;5.30;;;;;;;19.70;55.38;97172.69;5033722;28;20400;-69
2023/10/14 04:05:10;;;;;;;10.73;5.03;;;;;;;19.68;55.31;97173.03;5032323;28;20045;-70
2023/10/14 04:07:40;;;;;;;10.57;5.55;;;;;;;19.61;55.59;97164.53;5032363;28;20079;-69
2023/10/14 04:10:09;;;;;;;7.97;4.95;;;;;;;19.61;55.73;97170.00;5031932;28;20727;-70
2023/10/14 04:12:37;;;;;;;13.82;5.20;;;;;;;19.57;55.71;97162.78;5032075;28;20025;-70
2023/10/14 04:17:38;;;;;;;8.02;5.00;;;;;;;19.41;56.36;97164.44;5032096;28;20424;-69
2023/10/14 04:22:38;;;;;;;9.88;5.25;;;;;;;19.36;56.73;97161.88;5032013;28;20060;-70
2023/10/14 04:25:18;;;;;;;9.38;5.30;;;;;;;19.33;57.82;97142.28;5032082;28;20107;-70
2023/10/14 04:28:17;;;;;;;10.52;5.72;;;;;;;19.54;57.80;97157.97;5031546;28;20037;-72
2023/10/14 04:30:38;;;;;;;11.27;6.32;;;;;;;19.65;57.96;97131.91;5031348;28;20056;-72
2023/10/14 04:33:16;;;;;;;14.80;6.45;;;;;;;19.76;58.51;97133.13;5015975;28;20045;-72
2023/10/14 04:35:58;;;;;;;11.25;6.10;;;;;;;19.93;58.74;97144.75;5029832;28;20037;-71
2023/10/14 04:38:37;;;;;;;13.68;6.55;;;;;;;19.97;58.27;97133.97;5045634;28;20037;-71
2023/10/14 04:41:03;;;;;;;12.50;6.78;;;;;;;20.04;58.57;97139.72;5031583;28;20034;-71
2023/10/14 04:48:58;;;;;;;15.35;6.40;;;;;;;20.12;58.78;97130.66;5018253;28;20049;-72
2023/10/14 04:51:30;;;;;;;11.75;6.47;;;;;;;20.11;58.93;97128.25;5031251;28;20112;-72
2023/10/14 04:54:00;;;;;;;14.75;6.70;;;;;;;20.17;59.03;97105.88;5015524;28;20034;-70
2023/10/14 04:56:29;;;;;;;14.48;6.57;;;;;;;20.22;59.08;97124.84;5030969;28;20499;-70
2023/10/14 04:58:55;;;;;;;10.90;5.80;;;;;;;20.22;58.84;97122.09;5030595;28;20038;-71
2023/10/14 05:01:24;;;;;;;12.18;6.25;;;;;;;20.11;58.16;97122.81;5030883;28;20031;-72
2023/10/14 05:03:57;;;;;;;11.57;5.70;;;;;;;20.04;57.72;97128.78;5032239;28;20162;-70
2023/10/14 05:06:23;;;;;;;8.98;5.15;;;;;;;19.94;57.46;97145.56;5031153;28;20041;-71
2023/10/14 05:08:51;;;;;;;12.02;5.15;;;;;;;19.84;57.79;97133.09;5030873;28;20028;-71
2023/10/14 05:11:22;;;;;;;12.90;5.70;;;;;;;19.84;57.60;97143.19;5026474;28;20044;-71
2023/10/14 05:16:55;;;;;;;6.63;5.30;;;;;;;19.69;58.26;97149.25;5018577;28;20037;-71
2023/10/14 05:20:16;;;;;;;10.13;5.93;;;;;;;19.68;58.67;97142.97;5028866;28;20548;-71
2023/10/14 05:22:18;;;;;;;7.88;5.70;;;;;;;19.60;59.38;97164.88;5025290;28;20076;-71
2023/10/14 05:24:49;;;;;;;10.68;6.30;;;;;;;19.58;59.77;97153.47;5026873;28;20535;-72
2023/10/14 05:27:19;;;;;;;14.20;6.25;;;;;;;19.61;61.11;97158.25;5025800;28;20389;-71
2023/10/14 05:29:51;;;;;;;9.90;6.75;;;;;;;19.76;61.76;97160.47;5026755;28;20485;-70
2023/10/14 05:32:23;;;;;;;16.15;6.80;;;;;;;19.93;61.60;97168.56;5029667;28;20504;-69
2023/10/14 05:34:50;;;;;;;11.57;6.10;;;;;;;19.99;61.71;97191.84;5030651;28;20492;-69
2023/10/14 05:37:16;;;;;;;10.00;5.75;;;;;;;20.00;61.62;97160.63;5028367;28;20052;-72
2023/10/14 05:39:41;;;;;;;14.50;6.55;;;;;;;20.06;61.84;97180.41;5029915;28;20045;-72
2023/10/14 05:42:15;;;;;;;10.27;5.93;;;;;;;20.10;61.78;97176.66;5031578;28;20075;-72
2023/10/14 05:44:57;;;;;;;14.75;6.25;;;;;;;19.87;61.83;97134.34;5010782;28;20069;-72
2023/10/14 05:47:27;;;;;;;9.13;5.97;;;;;;;20.08;62.38;97176.19;5030499;28;20500;-72
2023/10/14 05:49:52;;;;;;;10.82;5.90;;;;;;;20.01;62.53;97184.13;5013961;28;20064;-72
2023/10/14 05:52:21;;;;;;;12.20;6.10;;;;;;;20.06;62.65;97185.84;5030243;28;20544;-70
2023/10/14 05:54:49;;;;;;;12.63;5.93;;;;;;;19.99;62.48;97175.44;5030273;28;20042;-72
2023/10/14 05:57:17;;;;;;;14.43;5.93;;;;;;;19.82;63.11;97181.00;5030197;28;20440;-72
2023/10/14 05:59:43;;;;;;;13.00;5.78;;;;;;;19.87;62.53;97178.06;5029825;28;20116;-71
2023/10/14 06:02:12;;;;;;;14.02;6.00;;;;;;;19.80;62.99;97194.19;5030258;28;20022;-72
2023/10/14 06:04:41;;;;;;;12.85;5.50;;;;;;;19.73;62.97;97191.16;5030147;28;20473;-70
2023/10/14 06:07:11;;;;;;;10.02;5.38;;;;;;;19.79;63.41;97214.47;5026730;28;20029;-70
2023/10/14 06:09:37;;;;;;;9.50;5.13;;;;;;;19.55;64.00;97197.81;5029710;28;20370;-70
2023/10/14 06:12:12;;;;;;;14.50;4.97;;;;;;;19.57;63.80;97210.03;5030195;28;20029;-71
2023/10/14 06:14:38;;;;;;;9.32;4.97;;;;;;;19.56;64.33;97226.72;5028832;28;20158;-70
2023/10/14 06:17:03;;;;;;;12.35;5.20;;;;;;;19.60;63.80;97233.16;5018821;28;20108;-71
2023/10/14 06:19:30;;;;;;;11.35;4.72;;;;;;;19.46;64.82;97238.81;5016478;28;20133;-71
2023/10/14 06:21:56;;;;;;;11.27;5.00;;;;;;;19.48;65.00;97257.59;5029974;28;20125;-70
2023/10/14 06:24:23;;;;;;;9.57;4.55;;;;;;;19.41;65.54;97271.75;5031145;28;20545;-70
2023/10/14 06:26:48;;;;;;;11.13;4.85;;;;;;;19.39;65.61;97276.75;5010205;28;20033;-70
2023/10/14 06:29:14;;;;;;;7.78;4.60;;;;;;;19.07;66.15;97258.09;5026010;28;20083;-73
2023/10/14 06:31:40;;;;;;;10.68;4.93;;;;;;;19.32;66.43;97285.38;5028350;28;20033;-72
2023/10/14 06:34:09;;;;;;;12.85;4.60;;;;;;;19.26;66.52;97294.88;5020708;28;20044;-72
2023/10/14 06:36:37;;;;;;;9.80;4.72;;;;;;;19.17;66.85;97282.34;5013629;28;20018;-72
2023/10/14 06:39:13;;;;;;;9.48;5.05;;;;;;;19.20;66.87;97290.72;5027022;28;20034;-73
2023/10/14 06:41:43;;;;;;;7.88;4.72;;;;;;;19.23;67.24;97300.97;5029956;28;20033;-72
2023/10/14 06:44:15;;;;;;;8.70;4.68;;;;;;;19.13;67.42;97312.22;5008634;28;20024;-70
2023/10/14 06:46:47;;;;;;;9.40;4.65;;;;;;;19.03;68.13;97295.34;5026382;28;20037;-70
2023/10/14 06:49:16;;;;;;;11.70;4.93;;;;;;;19.02;67.98;97288.28;5030579;28;20472;-70
2023/10/14 06:51:42;;;;;;;8.93;4.75;;;;;;;19.00;68.54;97302.25;5033159;28;20108;-71
2023/10/14 06:54:09;;;;;;;8.98;4.78;;;;;;;18.96;68.71;97322.31;5033390;28;20113;-71
2023/10/14 06:56:36;;;;;;;10.52;5.30;;;;;;;18.96;69.17;97334.03;5033434;28;20118;-70
2023/10/14 06:59:01;;;;;;;13.05;4.90;;;;;;;18.98;68.82;97339.97;5028590;28;20041;-70
2023/10/14 07:01:28;;;;;;;11.35;4.97;;;;;;;18.86;70.10;97339.78;5030078;28;20104;-70
2023/10/14 07:03:54;;;;;;;11.90;4.80;;;;;;;18.90;70.14;97348.97;5034444;28;20033;-70
2023/10/14 07:06:20;;;;;;;8.40;4.72;;;;;;;18.89;70.14;97352.00;5034229;28;20021;-71
2023/10/14 07:08:48;;;;;;;12.18;4.70;;;;;;;18.76;70.41;97328.38;5032597;28;20075;-71
2023/10/14 07:11:15;;;;;;;9.73;4.82;;;;;;;18.87;70.46;97352.31;5033035;28;20036;-70
2023/10/14 07:13:42;;;;;;;8.48;4.40;;;;;;;18.80;70.71;97346.53;5030435;28;20543;-70
2023/10/14 07:16:08;;;;;;;11.40;4.57;;;;;;;18.78;70.38;97364.34;5031820;28;20021;-70
2023/10/14 07:18:36;;;;;;;11.85;4.43;;;;;;;18.70;70.97;97346.81;5033786;28;20048;-70
2023/10/14 07:21:02;;;;;;;9.73;4.80;;;;;;;18.74;71.43;97363.38;5032950;28;20415;-70
2023/10/14 07:23:36;;;;;;;8.63;4.68;;;;;;;18.69;71.90;97363.50;5032838;28;20041;-70
2023/10/14 07:26:12;;;;;;;8.77;4.65;;;;;;;18.66;71.99;97364.13;5033017;28;20480;-72
2023/10/14 07:28:42;;;;;;;;;;;;;;;18.44;72.99;97370.44;5049479;28;20086;-73
2023/10/14 07:31:11;;;;;;;9.45;4.97;;;;;;;18.67;72.26;97374.72;5032849;28;20401;-72
2023/10/14 07:33:40;;;;;;;7.40;4.35;;;;;;;18.66;72.24;97370.41;5033776;28;20044;-72
2023/10/14 07:36:06;;;;;;;9.75;4.50;;;;;;;18.53;72.63;97363.13;5033865;28;20052;-72
2023/10/14 07:38:34;;;;;;;10.63;4.55;;;;;;;18.53;72.42;97374.03;5030571;28;20029;-72
2023/10/14 07:41:01;;;;;;;11.20;4.07;;;;;;;18.66;72.27;97385.94;5032610;28;20040;-72
2023/10/14 07:43:26;;;;;;;7.72;4.22;;;;;;;18.41;72.69;97371.09;5032469;28;20611;-71
2023/10/14 07:45:52;;;;;;;9.05;4.13;;;;;;;18.65;72.10;97387.09;5032586;28;20037;-73
2023/10/14 07:48:19;;;;;;;8.75;4.15;;;;;;;18.56;73.26;97395.22;5033561;28;20511;-72
2023/10/14 07:50:47;;;;;;;9.00;3.70;;;;;;;18.54;73.08;97389.28;5032145;28;20112;-72
2023/10/14 07:53:14;;;;;;;6.57;3.60;;;;;;;18.56;72.87;97400.69;5032222;28;20083;-72
2023/10/14 07:55:40;;;;;;;9.05;4.65;;;;;;;18.51;72.99;97403.53;5030989;28;20428;-72
2023/10/14 07:58:10;;;;;;;9.18;4.00;;;;;;;18.50;73.27;97393.75;5031983;28;20135;-72
2023/10/14 08:00:48;;;;;;;6.45;3.42;;;;;;;18.39;74.24;97441.50;5031936;28;20034;-72
2023/10/14 08:03:16;;;;;;;7.45;2.15;;;;;;;17.46;78.33;97494.91;5031104;28;20112;-71
2023/10/14 08:05:43;;;;;;;4.90;2.80;;;;;;;16.69;82.86;97504.09;5032135;28;20029;-71
2023/10/14 08:08:09;;;;;;;5.43;3.22;;;;;;;16.42;84.74;97478.47;5031934;28;20038;-70
2023/10/14 08:10:36;;;;;;;6.18;3.05;;;;;;;16.44;85.31;97499.91;5031655;28;20021;-70
2023/10/14 08:13:04;;;;;;;6.72;3.20;;;;;;;16.32;86.21;97494.94;5031733;28;20556;-71
2023/10/14 08:15:30;;;;;;;6.05;2.83;;;;;;;16.25;86.31;97483.66;5025549;28;20398;-71
2023/10/14 08:18:00;;;;;;;4.13;3.08;;;;;;;16.30;87.12;97505.31;5011922;28;20045;-71
2023/10/14 08:20:28;;;;;;;8.63;3.20;;;;;;;16.29;87.15;97490.09;5012154;28;20038;-71
2023/10/14 08:22:53;;;;;;;5.47;3.05;;;;;;;16.28;87.49;97501.28;5018658;28;20060;-71
2023/10/14 08:25:21;;;;;;;4.57;2.88;;;;;;;16.26;87.71;97501.59;5031622;28;20099;-71
2023/10/14 08:27:46;;;;;;;5.90;2.50;;;;;;;16.20;88.48;97507.38;5032817;28;20025;-71
2023/10/14 08:30:12;;;;;;;4.75;2.22;;;;;;;16.30;87.86;97521.63;5032438;28;20408;-70
2023/10/14 08:32:41;;;;;;;6.90;2.53;;;;;;;16.19;88.14;97513.94;5031455;28;20025;-70
2023/10/14 08:35:17;;;;;;;3.17;2.38;;;;;;;16.32;88.17;97538.44;5031016;28;20029;-71
2023/10/14 08:37:49;;;;;;;3.97;2.05;;;;;;;16.29;88.17;97544.44;5047229;28;20467;-71
2023/10/14 08:40:16;;;;;;;2.75;2.00;;;;;;;16.35;87.95;97543.28;5030497;28;20096;-71
2023/10/14 08:42:51;;;;;;;4.00;1.70;;;;;;;16.37;87.60;97546.50;5028208;28;20018;-69
2023/10/14 08:45:21;;;;;;;2.22;1.80;;;;;;;16.32;87.68;97554.72;5030284;28;20068;-70
2023/10/14 08:47:50;;;;;;;2.80;1.80;;;;;;;16.53;87.43;97561.47;5031131;28;20033;-71
2023/10/14 08:50:18;;;;;;;4.25;1.75;;;;;;;16.62;87.07;97564.31;5010965;28;20025;-71
2023/10/14 08:52:45;;;;;;;3.00;1.73;;;;;;;16.61;86.90;97551.84;5028722;28;20531;-70
2023/10/14 08:55:15;;;;;;;2.58;2.08;;;;;;;16.70;86.33;97549.22;5026038;28;20025;-71
2023/10/14 09:00:12;;;;;;;3.10;1.50;;;;;;;17.05;85.28;97562.16;4910020;29;20044;-72
2023/10/14 09:02:44;;;;;;;2.95;1.70;;;;;;;17.13;85.13;97553.28;4911468;29;20056;-72
2023/10/14 09:05:11;;;;;;;4.28;1.70;;;;;;;17.09;84.97;97557.72;4892661;28;20028;-71
2023/10/14 09:07:41;;;;;;;2.90;1.95;;;;;;;16.85;84.81;97525.25;4896556;29;20104;-76
2023/10/14 09:10:06;;;;;;;1.65;1.50;;;;;;;17.13;84.97;97564.19;4894275;28;20484;-73
2023/10/14 09:12:32;;;;;;;3.83;1.63;;;;;;;17.23;85.05;97542.22;4877410;29;20021;-72
2023/10/14 09:14:57;;;;;;;3.50;1.83;;;;;;;17.42;84.54;97559.25;4908604;29;20095;-73
2023/10/14 09:17:23;;;;;;;2.17;1.63;;;;;;;17.72;83.90;97566.81;4877447;29;20403;-73
2023/10/14 09:19:50;;;;;;;2.67;1.30;;;;;;;17.66;82.94;97551.69;4861644;29;20514;-73
2023/10/14 09:22:24;;;;;;;6.63;1.60;;;;;;;17.93;82.78;97567.97;4885284;29;20021;-73
2023/10/14 09:24:51;;;;;;;4.15;1.38;;;;;;;17.86;82.41;97550.41;4893887;29;20558;-73
2023/10/14 09:27:18;;;;;;;2.58;1.38;;;;;;;18.03;82.40;97571.56;4904371;28;20060;-74
2023/10/14 09:29:43;;;;;;;3.65;1.42;;;;;;;18.01;82.30;97573.81;4894116;29;20054;-73
2023/10/14 09:32:09;;;;;;;2.28;0.77;;;;;;;17.96;79.10;97593.78;4895861;29;20026;-74
2023/10/14 09:34:34;;;;;;;1.42;0.50;;;;;;;17.44;76.07;97597.84;4894830;28;20477;-75
2023/10/14 09:37:10;;;;;;;0.93;0.50;;;;;;;17.08;74.63;97621.44;4894250;29;20108;-73
2023/10/14 09:39:39;;;;;;;0.60;0.60;;;;;;;16.88;75.11;97616.34;4907172;29;20179;-72
2023/10/14 09:42:05;;;;;;;0.80;0.60;;;;;;;16.78;75.04;97613.81;4891948;29;20075;-72
2023/10/14 09:44:31;;;;;;;0.82;0.70;;;;;;;16.62;74.98;97615.97;4908606;29;20041;-71
2023/10/14 09:46:58;;;;;;;0.55;0.55;;;;;;;16.75;74.81;97628.00;4889927;29;20029;-71
2023/10/14 09:49:25;;;;;;;0.50;0.50;;;;;;;16.70;74.83;97622.66;4889388;29;20125;-71
2023/10/14 09:51:53;;;;;;;2.05;0.60;;;;;;;16.68;75.14;97636.53;4874988;29;20036;-71
2023/10/14 09:54:21;;;;;;;0.50;0.50;;;;;;;16.68;75.10;97638.44;4877521;29;20091;-71
2023/10/14 09:56:49;;;;;;;0.40;0.40;;;;;;;16.70;75.18;97647.13;4877265;29;20025;-72
2023/10/14 09:59:17;;;;;;;1.50;0.60;;;;;;;16.77;74.60;97625.78;4876691;29;20082;-72
2023/10/14 10:01:43;;;;;;;0.68;0.60;;;;;;;16.97;74.97;97628.97;4876897;29;20104;-72
2023/10/14 10:04:15;;;;;;;1.13;0.68;;;;;;;17.30;74.85;97629.72;4877166;29;20045;-72
2023/10/14 10:07:15;;;;;;;0.60;0.60;;;;;;;17.51;74.09;97617.34;4876959;29;20041;-72
2023/10/14 10:10:07;;;;;;;0.40;0.40;;;;;;;17.42;74.22;97616.41;4876979;29;20029;-72
2023/10/14 10:12:32;;;;;;;1.20;0.50;;;;;;;17.49;74.19;97643.22;4861792;29;20500;-72
2023/10/14 10:15:01;;;;;;;0.50;0.50;;;;;;;17.45;74.28;97640.31;4861390;29;20040;-72
2023/10/14 10:17:27;;;;;;;2.15;0.50;;;;;;;17.54;74.06;97640.44;4861296;29;20041;-72
2023/10/14 10:20:25;;;;;;;0.82;0.65;;;;;;;17.56;73.88;97627.34;4893248;29;20032;-72
2023/10/14 10:22:51;;;;;;;0.65;0.50;;;;;;;17.60;73.18;97645.47;4893449;29;20036;-72
2023/10/14 10:25:18;;;;;;;0.93;0.40;;;;;;;17.59;72.83;97638.44;4876957;29;20396;-73
2023/10/14 10:27:44;;;;;;;0.77;0.50;;;;;;;17.55;72.70;97653.75;4904691;29;20264;-72
2023/10/14 10:30:15;;;;;;;0.40;0.40;;;;;;;17.57;72.53;97645.28;4890237;29;20029;-73
2023/10/14 10:32:46;;;;;;;0.63;0.50;;;;;;;17.69;72.22;97640.94;4880036;29;20489;-72
2023/10/14 10:35:13;;;;;;;0.50;0.50;;;;;;;17.70;71.63;97650.72;4896576;29;20052;-72
2023/10/14 10:37:47;;;;;;;0.38;0.38;;;;;;;17.72;71.67;97659.41;4888216;29;20502;-72
2023/10/14 10:40:14;;;;;;;0.43;0.40;;;;;;;17.72;71.80;97653.16;4892515;29;20073;-72
2023/10/14 10:42:41;;;;;;;1.27;0.60;;;;;;;17.92;71.63;97658.97;4879917;29;20056;-73
2023/10/14 10:45:32;;;;;;;0.45;0.45;;;;;;;17.86;70.86;97660.22;4871100;29;20489;-73
2023/10/14 10:48:00;;;;;;;0.88;0.70;;;;;;;17.75;70.82;97664.25;4880142;29;20033;-73
2023/10/14 10:50:27;;;;;;;0.85;0.55;;;;;;;17.54;70.84;97652.16;4896698;29;20021;-73
2023/10/14 10:53:13;;;;;;;2.55;0.60;;;;;;;17.26;71.20;97642.31;4893568;29;20040;-73
2023/10/14 10:55:38;;;;;;;;;;;;;;;17.08;71.56;97659.53;4895465;28;20052;-73
2023/10/14 10:58:05;;;;;;;0.50;0.50;;;;;;;17.06;71.83;97662.53;4896877;28;19921;-73
2023/10/14 11:00:32;;;;;;;0.98;0.40;;;;;;;17.28;71.35;97650.97;4915050;29;20629;-73
2023/10/14 11:03:00;;;;;;;0.80;0.60;;;;;;;17.44;70.70;97649.59;4965364;28;20029;-73
2023/10/14 11:05:26;;;;;;;0.57;0.50;;;;;;;17.51;70.93;97660.06;4887297;29;20079;-73
2023/10/14 11:07:52;;;;;;;0.77;0.50;;;;;;;17.53;70.88;97650.53;4903849;29;20044;-73
2023/10/14 11:10:38;;;;;;;0.50;0.50;;;;;;;17.80;70.52;97644.28;4960471;28;20503;-73
2023/10/14 11:13:06;;;;;;;1.33;0.60;;;;;;;17.88;70.22;97644.34;4894740;29;20033;-73
2023/10/14 11:15:32;;;;;;;0.65;0.57;;;;;;;17.82;70.50;97674.75;4890846;29;20057;-73
2023/10/14 11:17:59;;;;;;;0.52;0.50;;;;;;;17.84;70.79;97678.78;4885378;29;20068;-73
2023/10/14 11:20:31;;;;;;;0.88;0.50;;;;;;;17.95;70.56;97663.81;4902295;29;20033;-73
2023/10/14 11:22:57;;;;;;;0.43;0.43;;;;;;;17.95;70.00;97658.38;4879334;29;20028;-73
2023/10/14 11:25:23;;;;;;;1.95;0.57;;;;;;;17.90;70.10;97682.19;4879261;29;20381;-72
2023/10/14 11:27:49;;;;;;;0.63;0.63;;;;;;;18.13;69.64;97666.75;4895734;29;20463;-73
2023/10/14 11:30:15;;;;;;;0.77;0.50;;;;;;;18.32;69.12;97670.91;4878811;29;20550;-73
2023/10/14 11:32:50;;;;;;;0.52;0.50;;;;;;;18.50;68.72;97664.56;4894435;29;20039;-73
2023/10/14 11:35:22;;;;;;;1.92;0.45;;;;;;;18.50;68.84;97670.00;4863706;29;20036;-73
2023/10/14 11:37:54;;;;;;;0.82;0.55;;;;;;;18.46;68.47;97668.22;4886240;29;20077;-73
2023/10/14 11:40:25;;;;;;;0.80;0.60;;;;;;;18.42;69.31;97661.69;4969262;28;20051;-73
2023/10/14 11:42:54;;;;;;;0.60;0.60;;;;;;;18.28;69.55;97660.94;4879552;29;20377;-73
2023/10/14 11:45:20;;;;;;;3.15;0.80;;;;;;;17.94;69.40;97643.16;4863665;29;20021;-74
2023/10/14 11:47:46;;;;;;;0.88;0.70;;;;;;;18.06;67.87;97666.34;4863585;29;20068;-72
2023/10/14 11:50:12;;;;;;;0.68;0.68;;;;;;;17.99;65.42;97669.50;4878560;29;20064;-73
2023/10/14 11:52:44;;;;;;;0.63;0.60;;;;;;;18.33;65.61;97674.47;4878864;29;20108;-74
2023/10/14 11:55:16;;;;;;;1.55;0.70;;;;;;;18.17;66.76;97654.09;4879321;29;20127;-73
2023/10/14 11:57:46;;;;;;;1.35;0.70;;;;;;;18.14;66.68;97666.41;4879693;29;20052;-73
2023/10/14 12:00:16;;;;;;;2.38;0.63;;;;;;;17.99;66.32;97663.22;4878315;29;20032;-73
2023/10/14 12:02:43;;;;;;;1.65;0.60;;;;;;;17.78;67.47;97671.81;4879252;29;20033;-71
2023/10/14 12:05:09;;;;;;;1.38;0.57;;;;;;;17.67;67.64;97678.56;4895550;29;20493;-73
2023/10/14 12:07:34;;;;;;;1.95;0.45;;;;;;;17.57;67.35;97678.78;4894251;28;20051;-72
2023/10/14 12:10:00;;;;;;;0.82;0.50;;;;;;;17.61;68.00;97690.69;4878310;29;20037;-73
2023/10/14 12:12:26;;;;;;;2.08;0.70;;;;;;;17.48;68.26;97668.88;4862923;29;20040;-73
2023/10/14 12:14:52;;;;;;;2.08;0.65;;;;;;;17.59;67.84;97682.00;4895288;29;20036;-73